Time;durP1;ratioP1;P1;durP2;ratioP2;P2;SDS_P1;SDS_P2;PMS_P1;PMS_P2;Temp;Humidity;BMP_temperature;BMP_pressure;BME280_temperature;BME280_humidity;BME280_pressure;Samples;Min_cycle;Max_cycle;Signal;HPM_P1;HPM_P2
2022/08/09 00:01:48;;;;;;;11.85;6.05;;;;;;;23.20;60.33;94885.94;6299059;22;20174;-75
2022/08/09 00:04:17;;;;;;;8.40;5.70;;;;;;;23.10;60.67;94886.09;6296928;22;20192;-75
2022/08/09 00:06:45;;;;;;;15.00;6.07;;;;;;;23.13;61.81;94893.47;6298564;22;20187;-75
2022/08/09 00:09:14;;;;;;;10.30;5.90;;;;;;;23.11;61.19;94885.00;6298504;22;20195;-76
2022/08/09 00:11:41;;;;;;;8.38;5.57;;;;;;;22.87;61.96;94887.78;6299253;22;20614;-76
2022/08/09 00:14:08;;;;;;;8.07;6.03;;;;;;;22.50;64.17;94893.06;6297066;22;20658;-76
2022/08/09 00:16:35;;;;;;;10.88;6.10;;;;;;;22.47;64.41;94888.34;6297913;22;20239;-76
2022/08/09 00:19:02;;;;;;;9.70;5.40;;;;;;;22.53;64.33;94887.97;6298487;22;20171;-76
2022/08/09 00:21:29;;;;;;;9.75;5.63;;;;;;;22.56;64.79;94889.28;6299131;22;20168;-76
2022/08/09 00:23:57;;;;;;;15.07;6.78;;;;;;;22.63;64.91;94896.88;6298598;22;20164;-76
2022/08/09 00:26:26;;;;;;;15.40;6.38;;;;;;;22.41;64.99;94887.63;6297675;22;20275;-75
2022/08/09 00:28:53;;;;;;;10.82;5.60;;;;;;;22.33;65.96;94892.75;6298920;22;20175;-75
2022/08/09 00:31:21;;;;;;;9.35;5.93;;;;;;;22.23;66.46;94891.03;6299279;22;20187;-75
2022/08/09 00:33:48;;;;;;;9.40;6.07;;;;;;;22.31;66.39;94893.03;6299475;22;20168;-76
2022/08/09 00:36:15;;;;;;;9.80;5.97;;;;;;;22.39;66.56;94896.94;6297705;22;20164;-75
2022/08/09 00:38:42;;;;;;;9.23;6.05;;;;;;;22.49;66.12;94892.28;6298652;22;20168;-76
2022/08/09 00:41:09;;;;;;;10.13;6.20;;;;;;;22.52;66.76;94894.34;6298300;22;20624;-76
2022/08/09 00:43:39;;;;;;;9.35;5.70;;;;;;;22.45;66.27;94899.19;6298952;22;20222;-76
2022/08/09 00:46:07;;;;;;;9.55;6.00;;;;;;;22.34;67.61;94899.63;6296957;22;20283;-76
2022/08/09 00:48:34;;;;;;;9.82;5.93;;;;;;;22.34;67.96;94902.28;6297272;22;20168;-76
2022/08/09 00:51:03;;;;;;;8.57;6.22;;;;;;;22.36;68.15;94894.84;6298699;22;20529;-77
2022/08/09 00:53:31;;;;;;;12.05;6.60;;;;;;;22.34;67.77;94897.75;6298982;22;20251;-76
2022/08/09 00:55:58;;;;;;;10.35;6.47;;;;;;;22.32;68.07;94899.13;6299208;22;20192;-76
2022/08/09 00:58:25;;;;;;;7.68;6.00;;;;;;;22.28;66.61;94906.09;6297885;22;20172;-76
2022/08/09 01:00:56;;;;;;;11.65;5.90;;;;;;;22.17;66.76;94900.09;6299366;22;20216;-76
2022/08/09 01:03:31;;;;;;;12.80;6.13;;;;;;;22.28;65.67;94908.72;6300069;22;20562;-76
2022/08/09 01:06:04;;;;;;;6.78;5.93;;;;;;;22.27;65.94;94909.78;6299827;22;20182;-75
2022/08/09 01:08:42;;;;;;;13.48;6.03;;;;;;;22.31;66.83;94905.50;6300151;22;20204;-76
2022/08/09 01:11:22;;;;;;;12.90;5.90;;;;;;;22.30;67.56;94912.66;6301238;22;20596;-76
2022/08/09 01:13:55;;;;;;;6.80;5.82;;;;;;;22.35;66.29;94909.94;6301137;22;20210;-77
2022/08/09 01:16:27;;;;;;;11.23;5.80;;;;;;;22.40;67.30;94920.47;6298748;22;20152;-76
2022/08/09 01:19:00;;;;;;;6.68;5.63;;;;;;;22.42;67.58;94915.66;6302109;22;20163;-77
2022/08/09 01:21:41;;;;;;;9.05;5.75;;;;;;;22.40;66.13;94917.81;6301836;22;20152;-76
2022/08/09 01:24:16;;;;;;;12.80;6.32;;;;;;;22.36;66.58;94905.44;6301037;22;20179;-76
2022/08/09 01:26:54;;;;;;;9.15;5.45;;;;;;;22.32;66.14;94918.47;6302340;22;20203;-76
2022/08/09 01:29:28;;;;;;;12.73;6.78;;;;;;;22.10;67.85;94901.53;6302199;22;20152;-76
2022/08/09 01:31:58;;;;;;;8.30;5.72;;;;;;;22.03;68.35;94900.00;6301825;22;20163;-75
2022/08/09 01:34:27;;;;;;;9.80;6.30;;;;;;;22.03;68.46;94894.72;6301043;22;20291;-76
2022/08/09 01:36:57;;;;;;;6.93;5.50;;;;;;;22.10;68.43;94899.69;6301971;22;20192;-77
2022/08/09 01:39:27;;;;;;;8.43;5.93;;;;;;;22.13;68.36;94895.66;6301325;22;20179;-75
2022/08/09 01:41:56;;;;;;;11.00;6.00;;;;;;;22.20;68.50;94896.09;6300210;22;20164;-77
2022/08/09 01:44:25;;;;;;;10.82;5.85;;;;;;;22.16;68.13;94893.25;6300281;22;20185;-75
2022/08/09 01:46:52;;;;;;;9.98;5.50;;;;;;;21.92;68.40;94876.59;6302175;22;20187;-75
2022/08/09 01:49:21;;;;;;;7.72;5.60;;;;;;;21.78;68.97;94862.44;6301643;22;20172;-76
2022/08/09 01:51:50;;;;;;;10.23;5.72;;;;;;;21.79;69.36;94864.78;6301807;22;20180;-75
2022/08/09 01:54:19;;;;;;;7.55;5.13;;;;;;;21.87;69.32;94866.03;6300581;22;20165;-76
2022/08/09 01:56:48;;;;;;;11.00;6.10;;;;;;;21.87;69.82;94868.69;6301563;22;20190;-76
2022/08/09 01:59:20;;;;;;;9.57;5.40;;;;;;;21.92;70.01;94868.66;6301121;22;20172;-77
2022/08/09 02:01:50;;;;;;;12.35;5.70;;;;;;;22.02;69.35;94876.44;6302091;22;20163;-76
2022/08/09 02:04:19;;;;;;;8.40;5.72;;;;;;;22.03;69.83;94876.19;6300353;22;20694;-77
2022/08/09 02:09:37;;;;;;;10.63;6.07;;;;;;;21.98;69.92;94875.47;6301327;22;20272;-76
2022/08/09 02:12:07;;;;;;;9.77;5.95;;;;;;;21.99;69.67;94863.81;6300028;22;20168;-75
2022/08/09 02:14:37;;;;;;;6.20;5.10;;;;;;;22.01;69.33;94864.31;6301004;22;20152;-76
2022/08/09 02:17:05;;;;;;;8.18;5.72;;;;;;;22.06;69.21;94858.94;6299183;22;20156;-76
2022/08/09 02:19:32;;;;;;;8.00;5.43;;;;;;;22.07;69.47;94865.03;6300865;22;20172;-75
2022/08/09 02:22:04;;;;;;;8.93;5.55;;;;;;;22.07;69.33;94860.53;6300423;22;20491;-76
2022/08/09 02:24:38;;;;;;;8.00;5.47;;;;;;;22.04;69.38;94863.75;6301018;22;20506;-76
2022/08/09 02:27:08;;;;;;;9.38;6.07;;;;;;;22.08;69.38;94871.91;6301093;22;20243;-76
2022/08/09 02:29:39;;;;;;;9.13;5.70;;;;;;;22.08;69.17;94866.63;6301262;22;20504;-76
2022/08/09 02:32:09;;;;;;;8.50;5.50;;;;;;;22.00;69.07;94870.66;6298525;22;20516;-75
2022/08/09 02:34:37;;;;;;;9.20;5.90;;;;;;;22.03;69.27;94878.84;6300093;22;21000;-74
2022/08/09 02:37:08;;;;;;;9.23;5.60;;;;;;;22.00;69.00;94879.41;6301142;22;20191;-75
2022/08/09 02:39:38;;;;;;;9.88;5.75;;;;;;;22.03;68.99;94883.34;6301336;22;20214;-75
2022/08/09 02:42:08;;;;;;;11.27;5.72;;;;;;;22.08;68.53;94882.50;6300007;22;20160;-75
2022/08/09 02:44:38;;;;;;;7.03;5.60;;;;;;;21.93;69.27;94889.53;6300957;22;20171;-75
2022/08/09 02:47:09;;;;;;;8.32;5.43;;;;;;;21.82;69.57;94888.03;6300447;22;20516;-74
2022/08/09 02:49:40;;;;;;;10.63;5.60;;;;;;;22.07;68.68;94888.84;6301879;22;20157;-77
2022/08/09 02:52:11;;;;;;;8.25;5.75;;;;;;;22.22;67.90;94883.38;6299880;22;20170;-77
2022/08/09 02:54:40;;;;;;;9.48;6.50;;;;;;;22.34;67.08;94891.66;6300446;22;20192;-76
2022/08/09 02:57:09;;;;;;;10.05;6.13;;;;;;;22.24;67.05;94897.91;6300544;22;20179;-76
2022/08/09 02:59:39;;;;;;;12.43;6.43;;;;;;;22.06;67.68;94893.38;6301072;22;20196;-76
2022/08/09 03:02:07;;;;;;;9.35;6.00;;;;;;;;;;6299792;22;20268;-75
2022/08/09 03:04:37;;;;;;;7.22;5.70;;;;;;;22.02;67.61;94890.47;6300444;22;20176;-75
2022/08/09 03:07:05;;;;;;;10.73;5.60;;;;;;;22.11;68.23;94893.28;6300844;22;20192;-77
2022/08/09 03:09:33;;;;;;;10.45;6.28;;;;;;;22.24;67.60;94897.91;6300399;22;20199;-76
2022/08/09 03:12:01;;;;;;;15.85;6.88;;;;;;;22.27;67.94;94896.56;6299948;22;20247;-76
2022/08/09 03:14:30;;;;;;;8.93;6.55;;;;;;;22.20;67.89;94888.16;6299708;22;20171;-76
2022/08/09 03:16:59;;;;;;;9.95;6.20;;;;;;;22.16;68.55;94887.97;6300329;22;20179;-76
2022/08/09 03:19:29;;;;;;;13.60;6.75;;;;;;;22.14;68.94;94886.63;6300124;22;20168;-76
2022/08/09 03:21:57;;;;;;;12.15;6.85;;;;;;;22.12;68.43;94880.84;6299072;22;20538;-76
2022/08/09 03:24:25;;;;;;;9.02;6.85;;;;;;;22.09;69.53;94892.00;6298952;22;20171;-76
2022/08/09 03:26:53;;;;;;;12.27;6.30;;;;;;;22.01;70.20;94898.72;6299888;22;20242;-76
2022/08/09 03:29:21;;;;;;;11.15;6.45;;;;;;;21.94;70.78;94892.97;6298699;22;20176;-75
2022/08/09 03:31:49;;;;;;;12.68;6.65;;;;;;;21.98;70.66;94891.34;6299929;22;20494;-74
2022/08/09 03:34:18;;;;;;;12.45;6.95;;;;;;;21.96;70.72;94902.19;6297948;22;20182;-73
2022/08/09 03:36:45;;;;;;;16.63;6.47;;;;;;;21.87;70.87;94906.56;6298892;22;20168;-74
2022/08/09 03:39:12;;;;;;;16.30;6.70;;;;;;;21.74;71.88;94901.91;6299022;22;20174;-75
2022/08/09 03:41:39;;;;;;;15.27;6.50;;;;;;;21.66;72.21;94902.53;6299701;22;20164;-75
2022/08/09 03:44:05;;;;;;;9.30;6.18;;;;;;;21.55;72.51;94909.00;6298414;22;20259;-75
2022/08/09 03:46:32;;;;;;;8.68;5.93;;;;;;;21.53;72.55;94912.97;6297357;22;20192;-75
2022/08/09 03:49:02;;;;;;;8.82;6.13;;;;;;;21.45;73.21;94907.22;6298511;22;20187;-74
2022/08/09 03:51:32;;;;;;;10.18;6.72;;;;;;;21.38;74.23;94914.72;6298857;22;20641;-74
2022/08/09 03:53:59;;;;;;;8.93;6.30;;;;;;;21.33;73.65;94909.44;6298579;22;20176;-73
2022/08/09 03:56:26;;;;;;;10.70;6.60;;;;;;;21.38;74.14;94913.91;6297588;22;20168;-74
2022/08/09 03:58:56;;;;;;;12.60;6.60;;;;;;;21.43;73.40;94908.56;6300155;22;20199;-74
2022/08/09 04:01:24;;;;;;;8.93;6.03;;;;;;;21.45;73.53;94914.38;6299371;22;20168;-73
2022/08/09 04:03:54;;;;;;;11.38;6.28;;;;;;;21.26;73.32;94887.03;6298917;22;20172;-74
2022/08/09 04:06:22;;;;;;;14.80;6.03;;;;;;;21.49;72.64;94910.09;6274108;22;20624;-74
2022/08/09 04:08:50;;;;;;;12.77;6.60;;;;;;;21.43;73.39;94908.56;6298519;22;20206;-73
2022/08/09 04:11:17;;;;;;;19.92;8.30;;;;;;;21.53;73.45;94918.28;6298415;22;20176;-74
2022/08/09 04:13:44;;;;;;;15.88;7.35;;;;;;;21.50;73.81;94917.75;6298713;22;20179;-74
2022/08/09 04:16:11;;;;;;;14.10;7.05;;;;;;;21.55;73.56;94913.50;6297224;22;20160;-73
2022/08/09 04:18:39;;;;;;;11.18;7.00;;;;;;;21.50;74.59;94915.09;6297315;22;20172;-75
2022/08/09 04:21:06;;;;;;;15.93;6.97;;;;;;;21.50;75.04;94916.94;6297663;22;20245;-76
2022/08/09 04:23:33;;;;;;;13.13;6.93;;;;;;;21.51;74.01;94915.91;6297910;22;20168;-75
2022/08/09 04:26:01;;;;;;;9.52;7.05;;;;;;;21.45;73.79;94917.81;6297818;22;20749;-75
2022/08/09 04:28:28;;;;;;;12.38;6.60;;;;;;;21.36;73.82;94905.44;6297123;22;20196;-75
2022/08/09 04:30:55;;;;;;;16.25;6.93;;;;;;;21.33;74.31;94914.72;6298493;22;20572;-75
2022/08/09 04:33:22;;;;;;;16.05;6.40;;;;;;;21.34;74.46;94910.25;6298928;22;20164;-75
2022/08/09 04:35:49;;;;;;;7.75;6.43;;;;;;;21.41;74.92;94916.78;6298786;22;20160;-76
2022/08/09 04:38:16;;;;;;;13.63;6.32;;;;;;;21.49;74.93;94925.97;6296611;22;20167;-75
2022/08/09 04:40:48;;;;;;;13.60;6.80;;;;;;;21.61;74.62;94931.69;6297578;22;20168;-76
2022/08/09 04:43:17;;;;;;;18.60;6.70;;;;;;;21.64;74.43;94919.75;6297405;22;20160;-75
2022/08/09 04:45:44;;;;;;;16.65;6.60;;;;;;;21.77;73.88;94925.16;6298174;22;20202;-76
2022/08/09 04:48:12;;;;;;;16.58;7.05;;;;;;;21.94;72.76;94930.03;6297097;22;20164;-75
2022/08/09 04:50:40;;;;;;;21.30;13.02;;;;;;;22.21;71.56;94934.75;6297481;22;20172;-75
2022/08/09 04:53:07;;;;;;;20.92;10.63;;;;;;;22.24;71.38;94926.25;6298089;22;20168;-75
2022/08/09 04:55:35;;;;;;;13.20;7.72;;;;;;;22.32;70.42;94931.69;6298702;22;20178;-75
2022/08/09 04:58:02;;;;;;;14.45;7.53;;;;;;;22.29;71.71;94934.91;6297299;22;20167;-75
2022/08/09 05:00:33;;;;;;;16.40;7.07;;;;;;;22.27;71.67;94936.28;6297195;22;20195;-76
2022/08/09 05:03:00;;;;;;;10.63;6.53;;;;;;;22.23;71.56;94943.19;6296468;22;20261;-75
2022/08/09 05:05:27;;;;;;;14.50;6.90;;;;;;;22.25;71.73;94933.91;6296681;22;20169;-75
2022/08/09 05:07:54;;;;;;;19.05;7.38;;;;;;;22.19;71.98;94934.25;6296526;22;20638;-74
2022/08/09 05:10:21;;;;;;;12.30;6.68;;;;;;;22.24;72.01;94935.00;6141314;23;20179;-75
2022/08/09 05:12:48;;;;;;;9.25;6.43;;;;;;;22.33;71.88;94935.94;6141818;22;20502;-78
2022/08/09 05:15:14;;;;;;;8.65;6.15;;;;;;;22.31;71.82;94943.38;6141701;23;20798;-75
2022/08/09 05:17:43;;;;;;;11.95;6.72;;;;;;;22.26;71.88;94942.63;6142704;23;20164;-75
2022/08/09 05:20:10;;;;;;;11.73;6.38;;;;;;;22.28;72.33;94937.88;6141305;23;20179;-74
2022/08/09 05:22:37;;;;;;;13.55;7.03;;;;;;;22.29;71.96;94942.88;6141168;23;20176;-75
2022/08/09 05:25:05;;;;;;;12.00;7.00;;;;;;;22.31;71.64;94951.31;6143037;23;20173;-75
2022/08/09 05:27:32;;;;;;;10.80;6.95;;;;;;;22.44;71.62;94950.63;6142520;22;20962;-75
2022/08/09 05:29:59;;;;;;;10.57;6.70;;;;;;;22.57;70.82;94946.47;6142527;23;20175;-74
2022/08/09 05:32:26;;;;;;;8.55;6.85;;;;;;;22.65;71.08;94951.19;6141727;23;20518;-75
2022/08/09 05:34:54;;;;;;;11.70;6.78;;;;;;;22.67;71.17;94950.88;6142611;23;20171;-75
2022/08/09 05:37:21;;;;;;;13.80;6.93;;;;;;;22.83;70.25;94957.56;6143385;23;20175;-75
2022/08/09 05:39:48;;;;;;;8.10;6.45;;;;;;;22.90;69.54;94958.00;6143181;23;20172;-74
2022/08/09 05:42:15;;;;;;;11.43;6.55;;;;;;;22.85;69.49;94953.56;6141216;23;21033;-74
2022/08/09 05:44:42;;;;;;;10.38;7.45;;;;;;;22.85;69.59;94950.91;6142714;23;20174;-75
2022/08/09 05:47:09;;;;;;;8.98;6.97;;;;;;;22.87;70.17;94955.91;6142826;22;20693;-78
2022/08/09 05:49:36;;;;;;;12.93;7.30;;;;;;;22.90;69.90;94960.63;6142912;23;20167;-80
2022/08/09 05:52:04;;;;;;;15.65;8.48;;;;;;;22.83;70.07;94939.00;6142327;23;20176;-78
2022/08/09 05:54:31;;;;;;;11.43;8.55;;;;;;;22.94;70.01;94954.47;6141924;23;20179;-74
2022/08/09 05:56:58;;;;;;;13.25;7.78;;;;;;;23.04;69.36;94956.97;6142562;23;20168;-74
2022/08/09 05:59:25;;;;;;;14.13;7.68;;;;;;;23.10;69.18;94963.00;6143039;23;20682;-74
2022/08/09 06:01:52;;;;;;;12.65;7.07;;;;;;;23.29;67.28;94955.78;6143795;23;20175;-75
2022/08/09 06:04:37;;;;;;;14.05;6.93;;;;;;;23.32;65.34;94954.44;6141771;23;20265;-76
2022/08/09 06:07:06;;;;;;;16.48;7.20;;;;;;;23.35;65.05;94959.19;6141884;23;20219;-75
2022/08/09 06:09:33;;;;;;;10.48;6.97;;;;;;;23.40;65.27;94957.25;6142485;23;20545;-75
2022/08/09 06:11:59;;;;;;;9.32;6.82;;;;;;;23.37;65.01;94947.19;6298038;22;20169;-75
2022/08/09 06:14:26;;;;;;;11.43;7.10;;;;;;;23.42;65.37;94952.44;6297530;22;20179;-75
2022/08/09 06:16:54;;;;;;;14.68;6.47;;;;;;;23.56;65.19;94945.28;6299136;22;20164;-76
2022/08/09 06:19:21;;;;;;;12.70;6.50;;;;;;;23.66;65.55;94950.41;6299686;22;20169;-76
2022/08/09 06:21:49;;;;;;;10.65;6.75;;;;;;;23.73;65.05;94944.72;6301970;22;20168;-91
2022/08/09 06:24:17;;;;;;;11.20;6.78;;;;;;;23.68;64.87;94940.31;6305792;22;20164;-82
2022/08/09 06:26:44;;;;;;;9.90;6.70;;;;;;;23.75;64.65;94950.56;6305613;22;20192;-84
2022/08/09 06:29:11;;;;;;;10.73;6.80;;;;;;;23.81;65.37;94946.69;6305877;22;20544;-77
2022/08/09 06:31:37;;;;;;;9.70;6.32;;;;;;;23.84;65.17;94954.09;6306060;22;20164;-82
2022/08/09 06:34:05;;;;;;;14.02;6.50;;;;;;;24.01;64.11;94948.97;6306443;22;20175;-82
2022/08/09 06:36:32;;;;;;;12.07;6.35;;;;;;;24.21;62.65;94953.94;6306312;22;20620;-81
2022/08/09 06:38:59;;;;;;;10.38;6.78;;;;;;;24.28;62.49;94946.38;6306596;22;20190;-80
2022/08/09 06:41:27;;;;;;;12.38;6.40;;;;;;;24.33;62.31;94947.38;6309152;22;20168;-80
2022/08/09 06:43:54;;;;;;;11.23;6.75;;;;;;;24.41;62.10;94949.31;6306857;22;20168;-80
2022/08/09 06:46:21;;;;;;;11.98;6.28;;;;;;;24.46;61.86;94949.22;6306814;22;20211;-80
2022/08/09 06:48:47;;;;;;;9.23;5.97;;;;;;;24.52;61.33;94943.50;6305776;22;20170;-81
2022/08/09 06:51:15;;;;;;;8.85;5.90;;;;;;;24.66;61.13;94946.91;6305847;22;20164;-82
2022/08/09 06:53:42;;;;;;;13.13;6.38;;;;;;;24.69;61.12;94940.22;6305970;22;20161;-82
2022/08/09 06:56:09;;;;;;;9.93;6.30;;;;;;;24.69;61.08;94935.69;6306445;22;20557;-80
2022/08/09 06:58:38;;;;;;;11.43;6.15;;;;;;;24.79;60.84;94946.09;6306142;22;20176;-82
2022/08/09 07:01:05;;;;;;;14.98;6.40;;;;;;;24.77;60.43;94924.34;6307546;22;20172;-82
2022/08/09 07:03:33;;;;;;;12.07;5.90;;;;;;;24.91;60.37;94942.13;6306841;22;20230;-85
2022/08/09 07:06:01;;;;;;;12.10;6.13;;;;;;;24.94;59.90;94939.66;6304761;22;20164;-82
2022/08/09 07:08:29;;;;;;;11.25;5.93;;;;;;;25.11;58.50;94942.47;6305819;22;20192;-83
2022/08/09 07:10:56;;;;;;;7.80;5.55;;;;;;;25.11;58.20;94931.03;6305930;22;20673;-82
2022/08/09 07:13:23;;;;;;;8.65;5.50;;;;;;;25.18;57.58;94928.75;6305542;22;20171;-93
2022/08/09 07:15:51;;;;;;;11.20;5.82;;;;;;;25.43;57.51;94938.78;6306716;22;20160;-83
2022/08/09 07:18:18;;;;;;;13.65;5.65;;;;;;;25.49;57.10;94944.78;6305928;22;20212;-81
2022/08/09 07:20:45;;;;;;;9.57;5.80;;;;;;;25.51;57.15;94943.41;6310324;22;20199;-84
2022/08/09 07:23:13;;;;;;;13.80;6.65;;;;;;;25.65;57.08;94940.66;6306163;22;20164;-75
2022/08/09 07:25:39;;;;;;;9.45;5.85;;;;;;;25.69;56.06;94941.63;6303306;22;20168;-73
2022/08/09 07:28:06;;;;;;;17.85;5.70;;;;;;;25.76;56.12;94941.97;6305066;22;20198;-74
2022/08/09 07:30:33;;;;;;;10.18;5.75;;;;;;;25.78;55.58;94945.91;6304276;22;20222;-74
2022/08/09 07:33:02;;;;;;;9.25;5.40;;;;;;;25.89;54.91;94949.88;6148741;23;20235;-77
2022/08/09 07:35:29;;;;;;;13.82;5.43;;;;;;;25.98;54.86;94949.91;6149010;23;20183;-77
2022/08/09 07:37:56;;;;;;;7.50;5.13;;;;;;;26.02;54.25;94944.75;6304469;22;20724;-77
2022/08/09 07:40:23;;;;;;;13.45;5.25;;;;;;;26.09;53.43;94950.44;6304346;22;20214;-77
2022/08/09 07:42:52;;;;;;;11.50;5.22;;;;;;;26.15;54.18;94949.22;6304731;22;20175;-77
2022/08/09 07:45:24;;;;;;;6.63;5.22;;;;;;;26.08;53.83;94931.00;6149733;23;20251;-77
2022/08/09 07:47:52;;;;;;;12.13;5.97;;;;;;;26.18;53.65;94938.72;6304820;22;20176;-78
2022/08/09 07:50:26;;;;;;;11.35;5.10;;;;;;;26.25;53.83;94939.09;6305250;22;20571;-77
2022/08/09 07:52:54;;;;;;;8.27;4.85;;;;;;;26.28;50.82;94943.81;6304038;22;20710;-77
2022/08/09 07:55:22;;;;;;;5.65;4.80;;;;;;;26.39;51.44;94941.63;6304352;22;20296;-77
2022/08/09 07:57:49;;;;;;;7.63;5.30;;;;;;;26.49;52.24;94944.78;6304824;22;20195;-76
2022/08/09 08:00:18;;;;;;;6.43;5.00;;;;;;;26.62;51.21;94947.63;6304478;22;20171;-77
2022/08/09 08:02:45;;;;;;;6.78;5.40;;;;;;;26.66;50.24;94949.38;6304927;22;20208;-77
2022/08/09 08:05:12;;;;;;;8.05;5.10;;;;;;;26.73;52.29;94940.91;6305186;22;20176;-77
2022/08/09 08:07:40;;;;;;;7.88;5.28;;;;;;;26.72;51.27;94942.00;6304355;22;20200;-77
2022/08/09 08:10:09;;;;;;;8.00;5.03;;;;;;;26.75;50.70;94944.84;6305006;22;20222;-76
2022/08/09 08:12:38;;;;;;;8.75;5.28;;;;;;;26.78;50.56;94930.84;6304572;22;20296;-76
2022/08/09 08:15:06;;;;;;;10.57;5.28;;;;;;;26.90;49.99;94931.06;6304220;22;20527;-76
2022/08/09 08:17:33;;;;;;;10.50;5.32;;;;;;;26.95;49.54;94927.47;6304135;22;20160;-76
2022/08/09 08:20:00;;;;;;;12.88;5.55;;;;;;;27.11;49.65;94933.09;6304881;22;20171;-76
2022/08/09 08:22:26;;;;;;;7.15;4.90;;;;;;;27.17;48.17;94923.84;6304253;22;20243;-76
2022/08/09 08:24:55;;;;;;;10.48;4.78;;;;;;;27.28;48.13;94922.41;6304540;22;20222;-76
2022/08/09 08:27:23;;;;;;;8.73;4.80;;;;;;;27.33;47.17;94919.59;6304614;22;20230;-77
2022/08/09 08:29:50;;;;;;;9.07;5.18;;;;;;;27.32;48.22;94916.13;6304106;22;20222;-77
2022/08/09 08:32:17;;;;;;;8.23;4.50;;;;;;;27.49;47.56;94923.34;6304104;22;20176;-78
2022/08/09 08:34:45;;;;;;;8.52;5.13;;;;;;;27.51;46.55;94916.59;6302933;22;20218;-77
2022/08/09 08:37:13;;;;;;;7.95;4.28;;;;;;;27.53;46.02;94914.38;6304360;22;20164;-77
2022/08/09 08:39:40;;;;;;;8.25;4.80;;;;;;;27.65;45.96;94908.38;6304213;22;20165;-77
2022/08/09 08:42:09;;;;;;;6.90;4.60;;;;;;;27.60;45.70;94904.00;6304370;22;20251;-76
2022/08/09 08:44:37;;;;;;;7.00;4.85;;;;;;;27.54;45.23;94907.94;6303811;22;20172;-78
2022/08/09 08:47:04;;;;;;;12.98;4.90;;;;;;;27.49;43.82;94908.13;6304818;22;20192;-77
2022/08/09 08:49:33;;;;;;;7.82;4.55;;;;;;;27.39;44.26;94895.06;6304964;22;20177;-77
2022/08/09 08:52:00;;;;;;;6.30;4.20;;;;;;;27.42;44.82;94894.47;6304103;22;20195;-77
2022/08/09 08:54:27;;;;;;;6.32;4.50;;;;;;;27.44;44.17;94896.81;6303489;22;20164;-77
2022/08/09 08:56:54;;;;;;;9.18;4.10;;;;;;;27.52;42.35;94896.03;6304230;22;20175;-77
2022/08/09 08:59:23;;;;;;;7.97;3.85;;;;;;;27.64;42.38;94896.16;6303721;22;20223;-76
2022/08/09 09:01:51;;;;;;;5.38;4.28;;;;;;;27.84;42.01;94892.00;6304150;22;20164;-78
2022/08/09 09:04:19;;;;;;;9.40;4.15;;;;;;;28.08;42.16;94893.00;6304135;22;20172;-77
2022/08/09 09:06:51;;;;;;;6.28;4.00;;;;;;;28.01;41.50;94879.34;6304549;22;20243;-77
2022/08/09 09:09:21;;;;;;;4.82;3.90;;;;;;;28.32;40.88;94879.03;6304516;22;20195;-77
2022/08/09 09:11:48;;;;;;;10.25;3.97;;;;;;;28.30;39.57;94885.81;6304517;22;20182;-77
2022/08/09 09:14:22;;;;;;;10.15;4.00;;;;;;;28.41;39.65;94884.34;6304127;22;20519;-77
2022/08/09 09:16:51;;;;;;;9.30;3.28;;;;;;;28.77;36.09;94891.84;6305028;22;20880;-77
2022/08/09 09:19:18;;;;;;;4.82;2.90;;;;;;;28.96;32.94;94890.25;6304255;22;20701;-77
2022/08/09 09:22:07;;;;;;;6.38;2.75;;;;;;;28.80;34.80;94889.31;6303471;22;20168;-77
2022/08/09 09:24:36;;;;;;;11.38;3.53;;;;;;;28.54;35.39;94888.66;6285126;22;20206;-77
2022/08/09 09:27:04;;;;;;;7.88;3.40;;;;;;;28.58;33.48;94879.66;6304644;22;20538;-77
2022/08/09 09:29:33;;;;;;;5.05;3.00;;;;;;;28.53;34.06;94877.19;6308467;22;20518;-76
2022/08/09 09:32:02;;;;;;;4.72;3.00;;;;;;;28.48;34.62;94860.53;6306951;22;20164;-76
2022/08/09 09:34:29;;;;;;;6.13;3.00;;;;;;;28.64;34.28;94862.34;6306136;22;20208;-76
2022/08/09 09:36:57;;;;;;;4.10;3.38;;;;;;;28.83;34.21;94863.78;6306511;22;20160;-76
2022/08/09 09:39:26;;;;;;;4.95;3.20;;;;;;;28.83;34.51;94861.84;6306550;22;20165;-76
2022/08/09 09:41:56;;;;;;;9.40;3.35;;;;;;;28.59;33.82;94848.34;6306252;22;20585;-76
2022/08/09 09:44:25;;;;;;;4.75;3.25;;;;;;;28.67;33.66;94869.72;6305164;22;20247;-76
2022/08/09 09:46:57;;;;;;;5.25;3.17;;;;;;;28.88;33.08;94859.00;6306246;22;20169;-76
2022/08/09 09:49:26;;;;;;;5.35;3.13;;;;;;;28.82;32.22;94859.50;6306083;22;20156;-76
2022/08/09 09:52:03;;;;;;;5.13;3.05;;;;;;;28.76;30.49;94864.28;6305466;22;20164;-76
2022/08/09 09:54:39;;;;;;;6.85;2.55;;;;;;;29.25;31.41;94866.09;6305707;22;20190;-76
2022/08/09 09:57:18;;;;;;;5.80;3.22;;;;;;;29.18;32.17;94862.34;6305120;22;20214;-76
2022/08/09 09:59:48;;;;;;;5.25;3.00;;;;;;;29.00;32.62;94858.28;6305928;22;20580;-76
2022/08/09 10:02:17;;;;;;;5.93;2.67;;;;;;;28.78;32.36;94856.72;6305782;22;20243;-76
2022/08/09 10:04:46;;;;;;;12.75;3.35;;;;;;;29.05;32.05;94864.19;6305792;22;20231;-77
2022/08/09 10:07:22;;;;;;;8.02;3.22;;;;;;;29.33;31.21;94860.97;6306435;22;20274;-75
2022/08/09 10:09:53;;;;;;;5.30;3.05;;;;;;;29.74;30.21;94856.25;6305278;22;20204;-76
2022/08/09 10:12:28;;;;;;;6.85;3.00;;;;;;;29.60;29.47;94861.16;6149662;23;20564;-77
2022/08/09 10:15:07;;;;;;;5.65;2.88;;;;;;;29.53;30.53;94863.56;6149573;23;20160;-75
2022/08/09 10:17:35;;;;;;;5.45;2.83;;;;;;;29.50;30.08;94864.25;6306405;22;20160;-76
2022/08/09 10:20:08;;;;;;;5.80;3.13;;;;;;;29.59;29.73;94858.78;6306333;22;20164;-76
2022/08/09 10:22:36;;;;;;;5.97;3.72;;;;;;;30.03;29.37;94857.19;6304659;22;20632;-76
2022/08/09 10:25:06;;;;;;;7.03;2.40;;;;;;;29.99;30.26;94864.31;6306075;22;20255;-77
2022/08/09 10:27:34;;;;;;;6.35;2.80;;;;;;;29.97;30.16;94862.00;6305823;22;20192;-77
2022/08/09 10:30:05;;;;;;;4.50;2.30;;;;;;;30.24;28.49;94853.28;6305972;22;20178;-77
2022/08/09 10:32:34;;;;;;;14.63;3.30;;;;;;;30.24;28.94;94855.97;6305448;22;20156;-75
2022/08/09 10:35:00;;;;;;;11.57;2.75;;;;;;;30.07;29.64;94848.13;6150051;22;20346;-78
2022/08/09 10:37:29;;;;;;;4.00;2.47;;;;;;;30.01;29.80;94836.09;6149994;23;20190;-78
2022/08/09 10:39:56;;;;;;;11.25;4.75;;;;;;;30.12;30.43;94839.09;6305314;22;20635;-76
2022/08/09 10:42:23;;;;;;;5.00;2.60;;;;;;;30.18;29.37;94856.50;6307052;22;20160;-77
2022/08/09 10:44:56;;;;;;;5.28;2.55;;;;;;;30.60;27.85;94851.66;6305004;22;20176;-78
2022/08/09 10:47:34;;;;;;;8.52;3.85;;;;;;;30.57;29.29;94845.06;6305377;22;20149;-77
2022/08/09 10:50:06;;;;;;;6.32;3.40;;;;;;;30.48;28.60;94857.09;6305938;22;20885;-77
2022/08/09 10:52:54;;;;;;;6.38;4.13;;;;;;;30.74;27.76;94857.44;6305434;22;20157;-77
2022/08/09 10:55:27;;;;;;;7.88;2.92;;;;;;;30.69;26.57;94844.25;6306085;22;20646;-76
2022/08/09 10:57:55;;;;;;;9.85;4.30;;;;;;;30.94;26.97;94845.75;6306093;22;20167;-76
2022/08/09 11:00:37;;;;;;;4.65;2.40;;;;;;;31.22;26.94;94846.56;6305560;22;20168;-77
2022/08/09 11:03:18;;;;;;;3.42;2.58;;;;;;;31.08;26.79;94846.19;6305685;22;20179;-77
2022/08/09 11:06:20;;;;;;;7.07;2.55;;;;;;;30.59;26.16;94852.81;6305898;22;20171;-76
2022/08/09 11:08:48;;;;;;;7.45;2.47;;;;;;;30.52;25.97;94850.69;6148575;23;20202;-77
2022/08/09 11:11:18;;;;;;;3.33;2.67;;;;;;;30.64;25.60;94850.66;6149064;23;20162;-76
2022/08/09 11:13:45;;;;;;;4.18;2.70;;;;;;;30.43;26.50;94858.06;6304978;22;20176;-77
2022/08/09 11:16:31;;;;;;;6.55;2.60;;;;;;;30.68;25.85;94846.16;6305471;22;20163;-77
2022/08/09 11:18:58;;;;;;;2.97;2.67;;;;;;;31.02;26.58;94846.75;6305598;22;20164;-77
2022/08/09 11:21:57;;;;;;;5.80;2.60;;;;;;;30.72;26.76;94846.28;6304856;22;20733;-76
2022/08/09 11:24:25;;;;;;;5.10;2.83;;;;;;;30.54;27.86;94835.00;6304776;22;20243;-76
2022/08/09 11:26:52;;;;;;;5.07;2.60;;;;;;;30.78;27.52;94834.16;6304933;22;20251;-76
2022/08/09 11:29:53;;;;;;;5.38;2.72;;;;;;;30.41;28.02;94832.72;6304457;22;20198;-78
2022/08/09 11:32:42;;;;;;;8.57;2.65;;;;;;;30.35;28.07;94834.81;6255985;22;20176;-77
2022/08/09 11:35:15;;;;;;;7.57;3.05;;;;;;;30.18;28.49;94840.41;6305111;22;20196;-77
2022/08/09 11:37:43;;;;;;;7.82;2.95;;;;;;;30.43;27.57;94839.28;6305292;22;20174;-76
2022/08/09 11:40:13;;;;;;;4.80;3.20;;;;;;;30.65;27.61;94835.34;6305873;22;20176;-76
2022/08/09 11:42:49;;;;;;;5.20;3.00;;;;;;;30.47;27.35;94812.56;6304301;22;20176;-76